createdAt,value
2018-07-09T00:00:17.096Z,102464.45
2018-07-09T00:02:46.060Z,102460.37
2018-07-09T00:05:14.936Z,102464.06
2018-07-09T00:07:43.874Z,102463.70
2018-07-09T00:10:29.713Z,102463.11
2018-07-09T00:13:04.108Z,102460.75
2018-07-09T00:15:33.038Z,102459.48
2018-07-09T00:18:01.977Z,102452.67
2018-07-09T00:20:30.881Z,102450.63
2018-07-09T00:22:59.892Z,102458.97
2018-07-09T00:25:28.924Z,102451.05
2018-07-09T00:27:57.828Z,102448.48
2018-07-09T00:30:27.092Z,102453.94
2018-07-09T00:32:56.504Z,102451.73
2018-07-09T00:35:25.524Z,102450.11
2018-07-09T00:37:54.491Z,102444.92
2018-07-09T00:40:23.422Z,102442.62
2018-07-09T00:42:53.012Z,102446.27
2018-07-09T00:45:21.916Z,102446.63
2018-07-09T00:47:51.254Z,102456.53
2018-07-09T00:50:20.310Z,102447.77
2018-07-09T00:52:49.304Z,102455.03
2018-07-09T00:55:18.602Z,102455.07
2018-07-09T00:57:47.500Z,102450.53
2018-07-09T01:00:16.432Z,102454.03
2018-07-09T01:02:45.358Z,102446.81
2018-07-09T01:05:14.327Z,102448.38
2018-07-09T01:07:43.255Z,102446.83
2018-07-09T01:10:12.199Z,102442.94
2018-07-09T01:12:41.146Z,102440.98
2018-07-09T01:15:10.121Z,102445.81
2018-07-09T01:17:39.067Z,102442.92
2018-07-09T01:20:08.005Z,102443.52
2018-07-09T01:22:37.000Z,102442.34
2018-07-09T01:25:06.161Z,102447.02
2018-07-09T01:27:35.129Z,102448.56
2018-07-09T01:30:09.556Z,102446.28
2018-07-09T01:32:38.968Z,102452.56
2018-07-09T01:35:09.002Z,102449.36
2018-07-09T01:37:38.405Z,102451.34
2018-07-09T01:40:07.431Z,102458.52
2018-07-09T01:42:36.606Z,102459.09
2018-07-09T01:45:10.983Z,102453.09
2018-07-09T01:47:45.405Z,102455.39
2018-07-09T01:50:14.387Z,102452.50
2018-07-09T01:52:43.341Z,102459.48
2018-07-09T01:55:12.281Z,102460.91
2018-07-09T01:57:41.237Z,102454.13
2018-07-09T02:00:10.173Z,102461.61
2018-07-09T02:02:41.103Z,102454.91
2018-07-09T02:05:10.085Z,102449.31
2018-07-09T02:07:39.015Z,102447.92
2018-07-09T02:10:08.407Z,102455.73
2018-07-09T02:12:37.413Z,102454.50
2018-07-09T02:15:06.349Z,102449.11
2018-07-09T02:17:35.298Z,102445.82
2018-07-09T02:20:04.270Z,102444.30
2018-07-09T02:22:33.161Z,102433.09
2018-07-09T02:25:02.088Z,102428.56
2018-07-09T02:27:31.129Z,102429.39
2018-07-09T02:30:00.125Z,102431.67
2018-07-09T02:32:29.027Z,102434.09
2018-07-09T02:34:57.977Z,102434.19
2018-07-09T02:37:27.082Z,102438.15
2018-07-09T02:39:55.984Z,102445.30
2018-07-09T02:42:24.895Z,102438.92
2018-07-09T02:44:53.912Z,102440.97
2018-07-09T02:47:22.914Z,102444.38
2018-07-09T02:49:51.824Z,102442.73
2018-07-09T02:52:20.733Z,102444.55
2018-07-09T02:54:49.685Z,102446.94
2018-07-09T02:57:18.586Z,102453.30
2018-07-09T02:59:47.547Z,102445.28
2018-07-09T03:02:16.481Z,102451.25
2018-07-09T03:04:45.396Z,102448.38
2018-07-09T03:07:14.346Z,102449.68
2018-07-09T03:09:43.302Z,102442.70
2018-07-09T03:12:12.354Z,102453.96
2018-07-09T03:14:41.231Z,102446.24
2018-07-09T03:17:10.200Z,102444.63
2018-07-09T03:19:39.125Z,102434.65
2018-07-09T03:22:08.064Z,102434.08
2018-07-09T03:24:37.004Z,102437.36
2018-07-09T03:27:06.014Z,102437.56
2018-07-09T03:29:34.976Z,102448.83
2018-07-09T03:32:03.936Z,102452.24
2018-07-09T03:34:32.870Z,102460.38
2018-07-09T03:37:01.794Z,102461.48
2018-07-09T03:39:30.756Z,102458.09
2018-07-09T03:41:59.671Z,102458.06
2018-07-09T03:44:28.672Z,102456.58
2018-07-09T03:46:57.609Z,102460.78
2018-07-09T03:49:26.524Z,102463.35
2018-07-09T03:51:55.516Z,102462.86
2018-07-09T03:54:24.491Z,102461.10
2018-07-09T03:56:53.403Z,102455.57
2018-07-09T03:59:22.395Z,102459.69
2018-07-09T04:01:51.401Z,102454.38
2018-07-09T04:04:20.403Z,102454.42
2018-07-09T04:06:49.328Z,102442.09
2018-07-09T04:09:18.271Z,102441.75
2018-07-09T04:11:47.244Z,102447.89
2018-07-09T04:14:16.159Z,102445.75
2018-07-09T04:16:45.222Z,102458.33
2018-07-09T04:19:14.113Z,102457.08
2018-07-09T04:21:43.042Z,102462.80
2018-07-09T04:24:11.989Z,102469.39
2018-07-09T04:26:40.893Z,102473.04
2018-07-09T04:29:09.878Z,102470.64
2018-07-09T04:31:38.842Z,102469.09
2018-07-09T04:34:07.817Z,102471.30
2018-07-09T04:36:36.832Z,102475.30
2018-07-09T04:39:06.824Z,102481.84
2018-07-09T04:41:36.099Z,102484.52
2018-07-09T04:44:05.112Z,102489.09
2018-07-09T04:46:34.062Z,102487.18
2018-07-09T04:49:03.008Z,102482.96
2018-07-09T04:51:31.948Z,102487.51
2018-07-09T04:54:00.912Z,102476.89
2018-07-09T04:56:29.878Z,102479.61
2018-07-09T04:58:58.766Z,102482.70
2018-07-09T05:01:27.748Z,102484.75
2018-07-09T05:03:56.672Z,102479.59
2018-07-09T05:06:25.608Z,102486.07
2018-07-09T05:08:54.573Z,102486.77
2018-07-09T05:11:23.492Z,102486.24
2018-07-09T05:13:52.460Z,102479.17
2018-07-09T05:16:21.388Z,102477.11
2018-07-09T05:18:50.330Z,102475.88
2018-07-09T05:21:19.258Z,102475.01
2018-07-09T05:23:48.252Z,102473.04
2018-07-09T05:26:17.196Z,102470.41
2018-07-09T05:28:46.122Z,102473.78
2018-07-09T05:31:15.046Z,102475.55
2018-07-09T05:33:43.956Z,102479.91
2018-07-09T05:36:12.960Z,102478.47
2018-07-09T05:38:42.190Z,102485.05
2018-07-09T05:41:11.217Z,102486.94
2018-07-09T05:43:40.192Z,102491.83
2018-07-09T05:46:09.137Z,102478.27
2018-07-09T05:48:38.106Z,102474.92
2018-07-09T05:51:07.038Z,102472.83
2018-07-09T05:53:35.955Z,102471.19
2018-07-09T05:56:04.924Z,102472.19
2018-07-09T05:58:39.348Z,102469.71
2018-07-09T06:01:13.835Z,102467.25
2018-07-09T06:03:42.788Z,102462.85
2018-07-09T06:06:11.790Z,102464.52
2018-07-09T06:08:46.752Z,102476.30
2018-07-09T06:11:15.721Z,102474.98
2018-07-09T06:13:50.233Z,102467.33
2018-07-09T06:16:19.178Z,102475.84
2018-07-09T06:18:48.192Z,102471.11
2018-07-09T06:21:17.122Z,102469.16
2018-07-09T06:23:46.028Z,102462.44
2018-07-09T06:26:15.014Z,102467.66
2018-07-09T06:28:43.933Z,102467.00
2018-07-09T06:31:12.959Z,102470.03
2018-07-09T06:33:47.552Z,102472.34
2018-07-09T06:36:16.537Z,102465.94
2018-07-09T06:38:45.441Z,102473.95
2018-07-09T06:41:14.432Z,102471.05
2018-07-09T06:43:43.420Z,102464.13
2018-07-09T06:46:12.350Z,102454.68
2018-07-09T06:48:41.334Z,102464.56
2018-07-09T06:51:10.300Z,102457.67
2018-07-09T06:53:39.237Z,102460.05
2018-07-09T06:56:08.192Z,102448.89
2018-07-09T06:58:37.096Z,102453.37
2018-07-09T07:01:06.307Z,102436.23
2018-07-09T07:03:35.232Z,102452.33
2018-07-09T07:06:04.224Z,102451.81
2018-07-09T07:08:33.177Z,102454.70
2018-07-09T07:11:02.148Z,102451.75
2018-07-09T07:13:31.136Z,102448.34
2018-07-09T07:16:00.052Z,102442.89
2018-07-09T07:18:28.966Z,102446.81
2018-07-09T07:20:58.937Z,102445.27
2018-07-09T07:23:33.564Z,102451.26
2018-07-09T07:26:02.526Z,102445.12
2018-07-09T07:28:31.469Z,102444.95
2018-07-09T07:31:00.360Z,102437.88
2018-07-09T07:33:29.328Z,102435.50
2018-07-09T07:35:58.389Z,102447.71
2018-07-09T07:38:27.309Z,102451.89
2018-07-09T07:40:56.343Z,102451.27
2018-07-09T07:43:25.296Z,102455.47
2018-07-09T07:45:54.245Z,102456.43
2018-07-09T07:48:23.285Z,102454.84
2018-07-09T07:50:52.317Z,102461.83
2018-07-09T07:53:21.265Z,102461.11
2018-07-09T07:55:50.233Z,102462.14
2018-07-09T07:58:24.704Z,102457.71
2018-07-09T08:00:59.237Z,102459.77
2018-07-09T08:03:28.206Z,102456.18
2018-07-09T08:05:57.137Z,102458.48
2018-07-09T08:08:26.151Z,102456.18
2018-07-09T08:10:55.099Z,102457.14
2018-07-09T08:13:28.502Z,102457.11
2018-07-09T08:15:53.160Z,102452.59
2018-07-09T08:18:22.096Z,102461.23
2018-07-09T08:20:56.653Z,102466.91
2018-07-09T08:23:25.606Z,102465.44
2018-07-09T08:25:59.937Z,102459.11
2018-07-09T08:28:28.860Z,102449.56
2018-07-09T08:30:57.888Z,102456.55
2018-07-09T08:33:26.796Z,102455.17
2018-07-09T08:35:55.688Z,102450.97
2018-07-09T08:38:24.604Z,102459.86
2018-07-09T08:40:54.631Z,102455.42
2018-07-09T08:43:23.576Z,102442.56
2018-07-09T08:45:52.579Z,102445.33
2018-07-09T08:48:21.532Z,102443.05
2018-07-09T08:50:50.446Z,102458.66
2018-07-09T08:53:23.036Z,102429.70
2018-07-09T08:55:52.103Z,102442.40
2018-07-09T08:58:21.202Z,102445.57
2018-07-09T09:00:50.204Z,102436.72
2018-07-09T09:03:19.121Z,102438.94
2018-07-09T09:05:48.336Z,102438.67
2018-07-09T09:08:17.312Z,102436.67
2018-07-09T09:10:46.267Z,102430.73
2018-07-09T09:13:15.238Z,102430.37
2018-07-09T09:15:44.360Z,102437.54
2018-07-09T09:18:13.304Z,102446.38
2018-07-09T09:20:50.034Z,102430.90
2018-07-09T09:23:18.977Z,102435.45
2018-07-09T09:25:53.604Z,102443.39
2018-07-09T09:28:22.601Z,102450.97
2018-07-09T09:30:51.639Z,102443.93
2018-07-09T09:33:23.924Z,102438.94
2018-07-09T09:35:52.904Z,102433.70
2018-07-09T09:38:21.880Z,102450.28
2018-07-09T09:40:50.808Z,102437.69
2018-07-09T09:43:19.712Z,102444.75
2018-07-09T09:45:48.664Z,102445.75
2018-07-09T09:48:17.624Z,102442.09
2018-07-09T09:50:46.745Z,102444.59
2018-07-09T09:53:15.678Z,102450.72
2018-07-09T09:55:44.628Z,102442.34
2018-07-09T09:58:13.512Z,102438.01
2018-07-09T10:00:47.568Z,102440.66
2018-07-09T10:03:16.528Z,102437.58
2018-07-09T10:05:45.627Z,102441.88
2018-07-09T10:08:14.614Z,102434.55
2018-07-09T10:10:43.553Z,102431.73
2018-07-09T10:13:14.563Z,102427.36
2018-07-09T10:15:43.480Z,102424.52
2018-07-09T10:18:12.426Z,102424.32
2018-07-09T10:20:41.357Z,102421.97
2018-07-09T10:23:10.452Z,102419.66
2018-07-09T10:25:39.236Z,102417.64
2018-07-09T10:28:08.172Z,102417.69
2018-07-09T10:30:37.194Z,102422.13
2018-07-09T10:33:06.209Z,102418.92
2018-07-09T10:35:35.147Z,102416.75
2018-07-09T10:38:05.157Z,102417.67
2018-07-09T10:40:34.089Z,102416.19
2018-07-09T10:43:03.053Z,102412.66
2018-07-09T10:45:35.154Z,102426.36
2018-07-09T10:48:04.187Z,102402.63
2018-07-09T10:50:36.962Z,102405.52
2018-07-09T10:53:05.921Z,102421.17
2018-07-09T10:55:35.025Z,102415.44
2018-07-09T10:58:03.967Z,102412.66
2018-07-09T11:00:32.981Z,102414.41
2018-07-09T11:03:01.904Z,102413.98
2018-07-09T11:05:30.855Z,102406.05
2018-07-09T11:08:06.168Z,102404.88
2018-07-09T11:10:40.627Z,102404.69
2018-07-09T11:13:15.186Z,102409.42
2018-07-09T11:15:44.116Z,102409.56
2018-07-09T11:18:16.398Z,102399.25
2018-07-09T11:20:46.212Z,102398.30
2018-07-09T11:23:15.200Z,102401.03
2018-07-09T11:25:44.173Z,102393.73
2018-07-09T11:28:13.126Z,102405.77
2018-07-09T11:30:42.063Z,102395.55
2018-07-09T11:33:14.712Z,102393.69
2018-07-09T11:35:43.684Z,102406.67
2018-07-09T11:38:14.633Z,102403.37
2018-07-09T11:40:43.545Z,102388.11
2018-07-09T11:43:12.498Z,102376.46
2018-07-09T11:45:41.417Z,102371.41
2018-07-09T11:48:10.330Z,102363.91
2018-07-09T11:50:39.314Z,102368.18
2018-07-09T11:53:08.322Z,102366.31
2018-07-09T11:55:37.233Z,102374.44
2018-07-09T11:58:06.161Z,102374.78
2018-07-09T12:00:35.175Z,102374.64
2018-07-09T12:03:04.129Z,102377.78
2018-07-09T12:05:33.075Z,102378.75
2018-07-09T12:08:02.115Z,102374.38
2018-07-09T12:10:31.021Z,102373.41
2018-07-09T12:13:00.001Z,102371.95
2018-07-09T12:15:28.964Z,102364.89
2018-07-09T12:17:57.906Z,102384.53
2018-07-09T12:20:26.807Z,102387.98
2018-07-09T12:22:55.789Z,102378.14
2018-07-09T12:25:24.693Z,102378.02
2018-07-09T12:27:53.626Z,102373.20
2018-07-09T12:30:22.589Z,102377.28
2018-07-09T12:32:57.199Z,102364.27
2018-07-09T12:35:26.203Z,102371.97
2018-07-09T12:37:55.233Z,102385.63
2018-07-09T12:40:24.141Z,102381.70
2018-07-09T12:42:53.141Z,102375.28
2018-07-09T12:45:25.915Z,102380.50
2018-07-09T12:47:55.135Z,102379.27
2018-07-09T12:50:24.171Z,102377.70
2018-07-09T12:52:53.980Z,102382.97
2018-07-09T12:55:23.079Z,102380.13
2018-07-09T12:57:52.043Z,102374.64
2018-07-09T13:00:20.975Z,102379.53
2018-07-09T13:02:50.059Z,102372.45
2018-07-09T13:05:19.244Z,102377.39
2018-07-09T13:07:48.139Z,102381.23
2018-07-09T13:10:17.107Z,102389.70
2018-07-09T13:12:45.992Z,102383.09
2018-07-09T13:15:14.910Z,102370.42
2018-07-09T13:17:43.861Z,102363.60
2018-07-09T13:20:12.873Z,102362.55
2018-07-09T13:22:41.771Z,102369.77
2018-07-09T13:25:10.755Z,102357.36
2018-07-09T13:27:39.665Z,102373.20
2018-07-09T13:30:08.645Z,102368.53
2018-07-09T13:32:37.637Z,102368.55
2018-07-09T13:35:06.624Z,102363.78
2018-07-09T13:37:35.551Z,102365.31
2018-07-09T13:40:04.510Z,102362.36
2018-07-09T13:42:33.475Z,102350.34
2018-07-09T13:45:02.468Z,102355.95
2018-07-09T13:47:31.449Z,102356.69
2018-07-09T13:50:00.449Z,102351.97
2018-07-09T13:52:29.387Z,102357.19
2018-07-09T13:54:58.324Z,102349.72
2018-07-09T13:57:27.262Z,102357.88
2018-07-09T13:59:56.250Z,102347.63
2018-07-09T14:02:25.153Z,102349.08
2018-07-09T14:04:54.133Z,102345.19
2018-07-09T14:07:23.074Z,102354.28
2018-07-09T14:09:52.101Z,102345.65
2018-07-09T14:12:21.041Z,102352.22
2018-07-09T14:14:50.037Z,102337.77
2018-07-09T14:17:18.937Z,102338.19
2018-07-09T14:20:28.397Z,102339.23
2018-07-09T14:22:57.593Z,102346.83
2018-07-09T14:25:26.543Z,102342.42
2018-07-09T14:27:55.749Z,102341.97
2018-07-09T14:30:24.803Z,102345.41
2018-07-09T14:32:53.818Z,102332.05
2018-07-09T14:35:22.759Z,102342.73
2018-07-09T14:37:51.871Z,102337.89
2018-07-09T14:40:20.844Z,102326.90
2018-07-09T14:42:49.766Z,102330.78
2018-07-09T14:45:18.727Z,102328.25
2018-07-09T14:47:47.686Z,102317.84
2018-07-09T14:50:16.631Z,102328.13
2018-07-09T14:52:45.627Z,102316.87
2018-07-09T14:55:14.553Z,102317.44
2018-07-09T14:57:43.450Z,102316.44
2018-07-09T15:00:12.363Z,102310.41
2018-07-09T15:02:41.303Z,102312.67
2018-07-09T15:05:10.223Z,102300.30
2018-07-09T15:07:39.274Z,102314.51
2018-07-09T15:10:08.203Z,102317.16
2018-07-09T15:12:37.131Z,102316.92
2018-07-09T15:15:07.193Z,102300.61
2018-07-09T15:17:36.138Z,102298.44
2018-07-09T15:20:05.164Z,102309.24
2018-07-09T15:22:34.107Z,102323.88
2018-07-09T15:25:03.096Z,102311.33
2018-07-09T15:27:31.981Z,102306.48
2018-07-09T15:30:00.932Z,102315.96
2018-07-09T15:32:31.041Z,102327.30
2018-07-09T15:35:00.253Z,102319.66
2018-07-09T15:37:29.661Z,102320.23
2018-07-09T15:39:58.575Z,102302.54
2018-07-09T15:42:27.686Z,102290.44
2018-07-09T15:44:56.596Z,102300.09
2018-07-09T15:47:25.601Z,102297.66
2018-07-09T15:49:54.645Z,102300.86
2018-07-09T15:52:23.579Z,102292.75
2018-07-09T15:54:52.543Z,102292.46
2018-07-09T15:57:26.977Z,102290.30
2018-07-09T15:59:55.925Z,102278.81
2018-07-09T16:02:24.851Z,102280.45
2018-07-09T16:04:53.847Z,102280.06
2018-07-09T16:07:22.749Z,102281.29
2018-07-09T16:09:51.767Z,102274.41
2018-07-09T16:12:20.687Z,102282.95
2018-07-09T16:14:49.645Z,102280.05
2018-07-09T16:17:18.599Z,102279.94
2018-07-09T16:19:47.583Z,102279.66
2018-07-09T16:22:16.575Z,102283.09
2018-07-09T16:24:45.480Z,102280.54
2018-07-09T16:27:14.425Z,102288.38
2018-07-09T16:29:43.354Z,102288.84
2018-07-09T16:32:12.298Z,102273.11
2018-07-09T16:34:41.205Z,102285.37
2018-07-09T16:37:10.121Z,102284.41
2018-07-09T16:39:39.057Z,102286.78
2018-07-09T16:42:08.070Z,102287.27
2018-07-09T16:44:37.036Z,102290.80
2018-07-09T16:47:06.054Z,102285.59
2018-07-09T16:49:35.030Z,102286.63
2018-07-09T16:52:03.983Z,102288.59
2018-07-09T16:54:32.975Z,102290.83
2018-07-09T16:57:04.976Z,102294.50
2018-07-09T16:59:33.912Z,102296.34
2018-07-09T17:02:02.826Z,102286.31
2018-07-09T17:04:31.768Z,102288.25
2018-07-09T17:07:00.794Z,102295.63
2018-07-09T17:09:29.850Z,102292.60
2018-07-09T17:11:58.792Z,102294.13
2018-07-09T17:14:27.719Z,102291.97
2018-07-09T17:16:56.688Z,102299.63
2018-07-09T17:19:25.615Z,102298.13
2018-07-09T17:22:00.296Z,102289.11
2018-07-09T17:24:29.218Z,102302.41
2018-07-09T17:26:58.355Z,102301.06
2018-07-09T17:29:27.089Z,102285.33
2018-07-09T17:31:56.057Z,102288.73
2018-07-09T17:34:24.968Z,102309.02
2018-07-09T17:36:54.003Z,102298.90
2018-07-09T17:39:22.892Z,102296.58
2018-07-09T17:41:51.968Z,102300.67
2018-07-09T17:44:21.167Z,102290.40
2018-07-09T17:46:50.194Z,102304.98
2018-07-09T17:49:19.118Z,102307.11
2018-07-09T17:51:50.073Z,102303.61
2018-07-09T17:54:19.527Z,102298.28
2018-07-09T17:56:48.431Z,102299.73
2018-07-09T17:59:17.406Z,102303.31
2018-07-09T18:01:46.349Z,102315.44
2018-07-09T18:04:15.295Z,102311.00
2018-07-09T18:06:44.260Z,102316.89
2018-07-09T18:09:13.168Z,102305.56
2018-07-09T18:11:48.300Z,102313.31
2018-07-09T18:14:17.259Z,102312.35
2018-07-09T18:16:46.197Z,102314.95
2018-07-09T18:19:19.172Z,102313.98
2018-07-09T18:21:48.107Z,102302.94
2018-07-09T18:24:17.074Z,102306.33
2018-07-09T18:26:46.042Z,102283.24
2018-07-09T18:29:14.997Z,102295.28
2018-07-09T18:31:44.028Z,102288.97
2018-07-09T18:34:18.677Z,102285.00
2018-07-09T18:36:53.232Z,102297.68
2018-07-09T18:39:22.216Z,102294.69
2018-07-09T18:41:51.346Z,102292.24
2018-07-09T18:44:20.294Z,102300.27
2018-07-09T18:46:49.208Z,102296.11
2018-07-09T18:49:18.142Z,102303.50
2018-07-09T18:51:47.091Z,102291.44
2018-07-09T18:54:16.188Z,102285.09
2018-07-09T18:56:45.157Z,102285.92
2018-07-09T18:59:14.093Z,102302.55
2018-07-09T19:01:43.100Z,102283.34
2018-07-09T19:04:12.132Z,102285.08
2018-07-09T19:06:51.754Z,102283.83
2018-07-09T19:09:21.380Z,102294.91
2018-07-09T19:11:50.337Z,102283.27
2018-07-09T19:14:20.255Z,102279.08
2018-07-09T19:17:00.376Z,102274.00
2018-07-09T19:19:40.616Z,102291.56
2018-07-09T19:22:09.634Z,102292.13
2018-07-09T19:24:43.528Z,102289.22
2018-07-09T19:27:11.352Z,102290.68
2018-07-09T19:29:39.203Z,102292.62
2018-07-09T19:32:07.091Z,102297.98
2018-07-09T19:34:34.988Z,102287.03
2018-07-09T19:37:02.827Z,102300.98
2018-07-09T19:39:30.639Z,102300.81
2018-07-09T19:41:58.491Z,102296.86
2018-07-09T19:44:26.323Z,102301.13
2018-07-09T19:46:54.179Z,102295.73
2018-07-09T19:49:22.031Z,102296.37
2018-07-09T19:51:49.896Z,102302.41
2018-07-09T19:54:17.740Z,102299.34
2018-07-09T19:56:45.556Z,102303.73
2018-07-09T19:59:13.369Z,102297.96
2018-07-09T20:01:41.266Z,102284.88
2018-07-09T20:04:09.081Z,102299.99
2018-07-09T20:06:36.897Z,102296.47
2018-07-09T20:09:10.308Z,102288.53
2018-07-09T20:11:43.434Z,102300.20
2018-07-09T20:14:16.544Z,102300.53
2018-07-09T20:16:49.672Z,102301.72
2018-07-09T20:19:17.517Z,102302.78
2018-07-09T20:21:45.383Z,102309.60
2018-07-09T20:24:13.184Z,102303.08
2018-07-09T20:26:41.049Z,102299.79
2018-07-09T20:29:08.903Z,102301.71
2018-07-09T20:31:36.776Z,102304.09
2018-07-09T20:34:04.658Z,102295.19
2018-07-09T20:36:32.544Z,102294.73
2018-07-09T20:39:00.388Z,102297.27
2018-07-09T20:41:28.226Z,102292.94
2018-07-09T20:43:56.094Z,102288.67
2018-07-09T20:46:23.964Z,102278.55
2018-07-09T20:48:51.820Z,102288.38
2018-07-09T20:51:19.640Z,102287.05
2018-07-09T20:53:47.496Z,102280.06
2018-07-09T20:56:15.334Z,102282.98
2018-07-09T20:58:43.162Z,102288.86
2018-07-09T21:01:10.996Z,102275.44
2018-07-09T21:03:38.860Z,102279.98
2018-07-09T21:06:06.702Z,102273.95
2018-07-09T21:08:34.585Z,102265.36
2018-07-09T21:11:02.450Z,102263.86
2018-07-09T21:13:32.064Z,102270.78
2018-07-09T21:16:00.083Z,102268.33
2018-07-09T21:18:27.806Z,102264.47
2018-07-09T21:20:55.641Z,102256.84
2018-07-09T21:23:29.156Z,102256.84
2018-07-09T21:25:58.673Z,102259.63
2018-07-09T21:28:26.561Z,102258.55
2018-07-09T21:30:54.366Z,102253.35
2018-07-09T21:33:22.195Z,102249.48
2018-07-09T21:35:50.034Z,102248.78
2018-07-09T21:38:17.904Z,102243.28
2018-07-09T21:40:45.807Z,102238.15
2018-07-09T21:43:13.934Z,102239.70
2018-07-09T21:45:41.796Z,102239.09
2018-07-09T21:48:10.554Z,102233.97
2018-07-09T21:50:37.524Z,102229.23
2018-07-09T21:53:05.399Z,102244.72
2018-07-09T21:55:33.199Z,102239.39
2018-07-09T21:58:01.067Z,102234.71
2018-07-09T22:00:29.308Z,102232.58
2018-07-09T22:02:57.131Z,102229.25
2018-07-09T22:05:25.095Z,102230.07
2018-07-09T22:07:52.961Z,102221.98
2018-07-09T22:10:20.821Z,102225.96
2018-07-09T22:12:48.676Z,102221.00
2018-07-09T22:15:16.473Z,102231.26
2018-07-09T22:17:44.303Z,102215.00
2018-07-09T22:20:12.158Z,102220.71
2018-07-09T22:22:40.024Z,102220.87
2018-07-09T22:25:07.838Z,102214.09
2018-07-09T22:27:35.662Z,102211.43
2018-07-09T22:30:03.853Z,102226.54
2018-07-09T22:32:38.464Z,102221.28
2018-07-09T22:35:13.064Z,102222.69
2018-07-09T22:37:42.025Z,102214.47
2018-07-09T22:40:11.106Z,102222.80
2018-07-09T22:42:45.672Z,102211.06
2018-07-09T22:45:14.587Z,102209.92
2018-07-09T22:47:43.515Z,102211.23
2018-07-09T22:50:12.479Z,102216.48
2018-07-09T22:52:41.436Z,102213.85
2018-07-09T22:55:21.808Z,102203.42
2018-07-09T22:57:50.756Z,102199.06
2018-07-09T23:00:20.087Z,102204.08
2018-07-09T23:03:04.666Z,102207.08
2018-07-09T23:05:35.647Z,102197.63
2018-07-09T23:08:04.806Z,102200.97
2018-07-09T23:11:52.716Z,102200.11
2018-07-09T23:14:34.652Z,102199.08
2018-07-09T23:17:14.870Z,102210.03
2018-07-09T23:20:09.016Z,102199.76
2018-07-09T23:22:36.848Z,102205.55
2018-07-09T23:25:04.738Z,102207.34
2018-07-09T23:27:32.593Z,102194.64
2018-07-09T23:30:00.417Z,102195.35
2018-07-09T23:32:28.261Z,102192.02
2018-07-09T23:34:56.136Z,102192.48
2018-07-09T23:37:24.071Z,102193.27
2018-07-09T23:39:51.914Z,102191.34
2018-07-09T23:42:19.742Z,102181.70
2018-07-09T23:44:47.593Z,102190.05
2018-07-09T23:47:16.345Z,102197.41
2018-07-09T23:49:44.170Z,102179.00
2018-07-09T23:52:12.092Z,102182.79
2018-07-09T23:54:39.911Z,102180.56
2018-07-09T23:59:22.738Z,102190.97
